Latest Weather Observations for Lake Grace

IDW60801

Issued at 12:05 pm WST Thursday 2 October 2014 (issued every 30 minutes, with the page automatically refreshed every 10 minutes)

About weather observations | Map of weather stations | Latest weather observations for WA | Other Formats
Station Details ID: 010911 Name: LAKE GRACE Lat: -33.10 Lon: 118.46 Height: 286.0 m
Data from the previous 72 hours. | See also: Recent months at Lake Grace
Date/Time
WST
Temp
°C
App
Temp
°C
Dew
Point
Rel
Hum
%
Delta-T
°C
Wind Press
QNH
hPa
Press
MSL
hPa
Rain
since 9 am
mm
Dir
 
Spd
km/h
Gust
km/h
Spd
kts
Gust
kts
02/12:00pm 30.1 24.2 7.3 24 12.5 N 28 43 15 23 1012.0 1011.5 0.0
02/11:30am 29.5 24.0 7.4 25 12.1 N 26 39 14 21 1012.5 1012.0 0.0
02/11:27am 29.6 23.7 7.5 25 12.1 N 28 46 15 25 1012.7 1012.2 0.0
02/11:00am 29.6 23.7 7.5 25 12.1 NNE 28 43 15 23 1013.2 1012.7 0.0
02/10:30am 27.8 23.1 7.6 28 11.0 NNE 22 39 12 21 1013.6 1013.1 0.0
02/10:00am 27.5 22.4 9.3 32 10.2 NE 26 37 14 20 1014.0 1013.5 0.0
02/09:30am 26.0 20.5 7.6 31 9.9 NE 26 39 14 21 1014.3 1013.8 0.0
02/09:00am 24.1 19.4 7.7 35 8.8 NE 22 30 12 16 1014.6 1014.1 0.0
02/08:30am 23.0 18.2 7.5 37 8.2 NE 22 39 12 21 1014.8 1014.3 0.0
02/08:00am 21.0 17.8 8.3 44 6.7 ENE 15 20 8 11 1014.9 1014.4 0.0
02/07:30am 20.4 16.4 8.4 46 6.4 ENE 19 28 10 15 1015.0 1014.5 0.0
02/07:00am 19.3 15.0 7.7 47 6.0 ENE 20 28 11 15 1015.0 1014.5 0.0
02/06:30am 19.4 15.1 7.8 47 6.0 ENE 20 30 11 16 1014.9 1014.4 0.0
02/06:00am 19.1 15.7 7.8 48 5.9 NE 15 26 8 14 1016.1 1015.7 0.0
02/05:30am 19.1 14.9 8.4 50 5.6 ENE 20 32 11 17 1015.2 1014.7 0.0
02/05:00am 18.9 14.5 8.8 52 5.3 ENE 22 32 12 17 1015.8 1015.3 0.0
02/04:30am 17.4 14.1 11.0 66 3.5 ENE 19 26 10 14 1016.6 1016.2 0.0
02/04:00am 17.2 16.5 11.5 69 3.1 SE 6 11 3 6 1017.9 1017.4 0.0
02/03:30am 17.3 16.6 11.3 68 3.3 SSE 6 9 3 5 1016.9 1016.4 0.0
02/03:00am 17.9 17.0 10.5 62 4.0 S 6 9 3 5 1016.4 1016.0 0.0
02/02:30am 18.3 17.2 10.7 61 4.2 SE 7 11 4 6 1016.6 1016.2 0.0
02/02:00am 18.7 16.6 9.8 56 4.8 ENE 11 15 6 8 1017.2 1016.7 0.0
02/01:30am 18.4 16.8 10.3 59 4.4 NE 9 13 5 7 1017.3 1016.8 0.0
02/01:00am 18.9 17.0 9.1 53 5.2 NNE 9 15 5 8 1018.4 1017.9 0.0
02/12:30am 19.5 16.8 8.8 50 5.7 N 13 20 7 11 1018.6 1018.1 0.0
02/12:00am 20.4 17.1 8.1 45 6.5 ENE 15 24 8 13 1017.8 1017.3 0.0
 
Date/Time
WST
Temp
°C
App
Temp
°C
Dew
Point
Rel
Hum
%
Delta-T
°C
Wind Press
QNH
hPa
Press
MSL
hPa
Rain
since 9 am
mm
Dir
 
Spd
km/h
Gust
km/h
Spd
kts
Gust
kts
01/11:30pm 19.8 15.8 8.2 47 6.1 E 19 28 10 15 1017.3 1016.8 0.0
01/11:00pm 19.9 16.2 7.9 46 6.3 E 17 24 9 13 1017.8 1017.3 0.0
01/10:30pm 19.8 16.8 7.9 46 6.2 E 13 22 7 12 1018.0 1017.5 0.0
01/10:00pm 18.6 16.9 11.2 62 4.1 SE 11 13 6 7 1018.4 1017.9 0.0
01/09:30pm 20.9 17.7 8.5 45 6.6 E 15 22 8 12 1018.6 1018.1 0.0
01/09:00pm 21.8 16.8 8.0 41 7.3 E 24 35 13 19 1017.7 1017.2 0.0
01/08:30pm 22.1 19.5 7.9 40 7.5 E 11 17 6 9 1019.9 1019.5 0.0
01/08:00pm 22.2 19.3 8.0 40 7.5 E 13 19 7 10 1019.7 1019.3 0.0
01/07:30pm 22.9 19.2 7.8 38 8.0 E 17 20 9 11 1019.1 1018.7 0.0
01/07:00pm 23.2 19.8 7.7 37 8.2 E 15 24 8 13 1018.7 1018.2 0.0
01/06:30pm 24.1 21.1 7.7 35 8.7 ESE 13 19 7 10 1018.3 1017.8 0.0
01/06:00pm 24.7 22.0 7.4 33 9.2 E 11 17 6 9 1018.4 1017.9 0.0
01/05:30pm 25.6 22.5 7.2 31 9.8 E 13 19 7 10 1018.5 1018.0 0.0
01/05:00pm 26.5 23.3 7.0 29 10.4 E 13 19 7 10 1018.7 1018.2 0.0
01/04:30pm 27.1 24.2 6.5 27 11.0 ENE 11 17 6 9 1018.4 1017.9 0.0
01/04:00pm 27.6 23.4 5.8 25 11.5 E 17 24 9 13 1018.2 1017.7 0.0
01/03:30pm 27.6 24.6 5.8 25 11.5 NE 11 17 6 9 1018.4 1017.9 0.0
01/03:00pm 27.4 23.4 6.8 27 11.0 NNE 17 20 9 11 1018.2 1017.7 0.0
01/02:30pm 27.2 22.6 5.5 25 11.3 ENE 19 30 10 16 1018.6 1018.1 0.0
01/02:00pm 27.1 23.4 6.5 27 10.9 ENE 15 22 8 12 1019.1 1018.7 0.0
01/01:30pm 26.9 23.2 6.3 27 10.9 ENE 15 28 8 15 1019.5 1019.1 0.0
01/01:00pm 26.6 23.2 7.6 30 10.2 NNE 15 24 8 13 1020.0 1019.6 0.0
01/12:30pm 25.3 22.0 7.9 33 9.4 ENE 15 30 8 16 1020.7 1020.2 0.0
01/12:00pm 25.0 22.2 10.1 39 8.3 ENE 15 20 8 11 1021.2 1020.7 0.0
01/11:30am 23.9 21.5 10.2 42 7.6 NE 13 24 7 13 1021.8 1021.3 0.0
01/11:00am 23.5 21.2 10.6 44 7.2 NE 13 22 7 12 1022.1 1021.7 0.0
01/10:30am 21.9 18.7 9.8 46 6.6 NE 17 28 9 15 1022.3 1021.9 0.0
01/10:00am 20.7 17.6 10.2 51 5.7 NE 17 24 9 13 1022.7 1022.3 0.0
01/09:30am 19.6 17.5 11.1 58 4.7 NE 13 19 7 10 1023.2 1022.8 0.0
01/09:00am 17.5 14.9 10.6 64 3.7 NE 15 24 8 13 1023.6 1023.2 0.0
01/08:30am 15.7 12.9 10.0 69 3.0 ENE 15 26 8 14 1023.6 1023.2 0.0
01/08:00am 14.4 11.6 10.0 75 2.3 ENE 15 22 8 12 1023.8 1023.4 0.0
01/07:30am 12.9 10.1 9.9 82 1.6 ENE 15 20 8 11 1023.9 1023.9 0.0
01/07:00am 11.6 9.5 9.7 88 1.0 E 11 15 6 8 1023.7 1023.7 0.0
01/06:30am 10.3 8.4 9.1 92 0.6 ESE 9 13 5 7 1023.6 1023.6 0.0
01/06:00am 9.5 7.4 8.3 92 0.6 ESE 9 15 5 8 1023.1 1023.1 0.0
01/05:30am 9.3 7.2 8.1 92 0.6 SE 9 13 5 7 1023.0 1023.0 0.0
01/05:00am 9.6 7.9 8.2 91 0.7 SE 7 11 4 6 1022.9 1022.9 0.0
01/04:30am 10.0 7.5 8.4 90 0.8 ESE 11 13 6 7 1022.9 1022.9 0.0
01/04:00am 10.3 7.9 8.6 89 0.8 SE 11 17 6 9 1023.0 1023.0 0.0
01/03:30am 10.4 8.8 8.7 89 0.8 SE 7 15 4 8 1023.0 1023.0 0.0
01/03:00am 10.5 8.9 8.6 88 0.9 SSE 7 11 4 6 1023.0 1023.0 0.0
01/02:30am 10.7 8.3 8.6 87 1.0 SE 11 17 6 9 1023.0 1023.0 0.0
01/02:00am 10.9 7.0 8.7 86 1.1 ESE 19 28 10 15 1023.0 1023.0 0.0
01/01:30am 11.1 7.2 8.8 86 1.2 E 19 32 10 17 1023.1 1023.1 0.0
01/01:00am 11.1 7.2 8.8 86 1.2 E 19 32 10 17 1023.3 1023.3 0.0
01/12:30am 11.4 7.4 9.0 85 1.2 E 20 30 11 16 1023.4 1023.4 0.0
01/12:00am 11.4 7.6 9.1 86 1.2 ESE 19 30 10 16 1023.6 1023.6 0.0
 
Date/Time
WST
Temp
°C
App
Temp
°C
Dew
Point
Rel
Hum
%
Delta-T
°C
Wind Press
QNH
hPa
Press
MSL
hPa
Rain
since 9 am
mm
Dir
 
Spd
km/h
Gust
km/h
Spd
kts
Gust
kts
30/11:30pm 11.7 8.0 9.3 85 1.2 ESE 19 30 10 16 1023.8 1023.8 0.0
30/11:00pm 12.0 8.1 9.6 85 1.2 ESE 20 32 11 17 1023.9 1023.9 0.0
30/10:30pm 12.3 9.0 9.7 84 1.3 ESE 17 28 9 15 1024.1 1024.1 0.0
30/10:00pm 12.6 9.0 9.8 83 1.4 ESE 19 33 10 18 1024.1 1024.1 0.0
30/09:30pm 13.2 9.4 9.8 80 1.8 ESE 20 30 11 16 1024.3 1024.2 0.0
30/09:00pm 13.9 10.3 9.7 76 2.2 ESE 19 30 10 16 1024.1 1024.1 0.0
30/08:30pm 14.7 10.9 9.7 72 2.6 ESE 20 28 11 15 1023.9 1023.9 0.0
30/08:00pm 16.2 13.2 9.2 63 3.7 ESE 15 22 8 12 1023.4 1023.4 0.0
30/07:30pm 16.1 14.3 9.5 65 3.5 SE 9 11 5 6 1023.2 1023.2 0.0
30/07:00pm 16.7 14.9 9.4 62 3.8 SE 9 13 5 7 1023.0 1023.0 0.0
30/06:30pm 17.7 15.5 9.3 58 4.5 SE 11 13 6 7 1022.7 1022.7 0.0
30/06:00pm 19.1 16.9 9.3 53 5.2 SE 11 15 6 8 1022.5 1022.4 0.0
30/05:30pm 20.2 17.0 8.5 47 6.2 SE 15 20 8 11 1022.4 1022.3 0.0
30/05:00pm 21.2 18.8 8.5 44 6.7 ESE 11 17 6 9 1022.4 1022.3 0.0
30/04:30pm 21.2 18.5 7.4 41 7.2 E 11 17 6 9 1022.2 1022.1 0.0
30/04:00pm 21.4 19.1 9.0 45 6.7 SE 11 17 6 9 1022.1 1022.0 0.0
30/03:30pm 21.2 19.4 9.4 47 6.4 SE 9 15 5 8 1022.0 1021.9 0.0
30/03:00pm 21.1 19.1 8.7 45 6.6 E 9 13 5 7 1022.0 1021.9 0.0
30/02:30pm 20.6 18.0 9.2 48 6.1 E 13 19 7 10 1022.1 1022.0 0.0
30/02:00pm 20.5 18.6 9.1 48 6.1 ESE 9 15 5 8 1022.3 1022.2 0.0
30/01:30pm 19.6 16.7 8.3 48 5.9 E 13 19 7 10 1022.6 1022.5 0.0
30/01:00pm 18.4 16.4 8.7 53 5.1 ESE 9 17 5 9 1022.9 1022.9 0.0
30/12:30pm 17.9 15.5 8.5 54 4.9 ESE 11 17 6 9 1023.1 1023.1 0.0
30/12:00pm 17.8 15.4 8.6 55 4.8 ESE 11 24 6 13 1023.4 1023.4 0.0
30/11:30am 17.3 14.2 8.7 57 4.5 SE 15 22 8 12 1023.7 1023.7 0.0
30/11:00am 16.5 13.7 8.7 60 4.0 SE 13 22 7 12 1023.9 1023.9 0.0
30/10:30am 16.0 13.0 9.2 64 3.6 SSE 15 24 8 13 1024.0 1024.0 0.0
30/10:00am 14.9 12.1 8.6 66 3.2 SE 13 20 7 11 1024.3 1024.2 0.0
30/09:30am 14.8 13.0 9.6 71 2.7 SE 9 15 5 8 1024.1 1024.1 0.0
30/09:00am 14.1 11.8 8.9 71 2.7 SE 11 19 6 10 1024.0 1024.0 2.2
30/08:30am 14.4 12.6 9.4 72 2.6 S 9 17 5 9 1023.8 1023.8 2.2
30/08:00am 12.6 10.6 10.3 86 1.2 S 11 15 6 8 1023.7 1023.7 2.2
30/07:30am 11.1 9.4 10.0 93 0.6 S 9 13 5 7 1023.4 1023.4 2.2
30/07:00am 9.0 8.6 8.1 94 0.4 CALM 0 0 0 0 1023.3 1023.3 2.2
30/06:30am 7.8 6.7 6.9 94 0.4 SW 2 6 1 3 1023.1 1023.1 2.2
30/06:00am 7.3 6.5 6.4 94 0.4 CALM 0 0 0 0 1022.8 1022.8 2.2
30/05:30am 7.1 5.4 6.0 93 0.5 SSE 4 6 2 3 1022.4 1022.3 2.2
30/05:00am 7.4 6.6 6.3 93 0.5 CALM 0 0 0 0 1022.0 1021.9 2.2
30/04:30am 7.3 6.4 6.1 92 0.6 CALM 0 0 0 0 1021.9 1021.8 2.2
30/04:00am 7.6 6.7 6.2 91 0.6 CALM 0 0 0 0 1021.6 1021.5 2.2
30/03:30am 8.2 7.4 6.7 90 0.7 CALM 0 0 0 0 1021.4 1021.3 2.2
30/03:00am 8.7 8.0 6.8 88 0.9 CALM 0 0 0 0 1020.9 1020.8 2.2
30/02:30am 9.2 8.1 7.0 86 1.0 SSW 2 7 1 4 1020.8 1020.7 2.2
30/02:00am 9.7 7.4 7.3 85 1.2 SW 9 15 5 8 1020.7 1020.6 2.2
30/01:30am 9.7 7.9 7.8 88 0.9 WSW 7 13 4 7 1020.4 1020.4 2.2
30/01:00am 9.3 8.0 7.6 89 0.8 WSW 4 6 2 3 1020.3 1020.3 2.2
30/12:30am 9.3 7.5 7.3 87 1.0 WNW 6 7 3 4 1020.1 1020.1 2.2
30/12:00am 10.9 9.3 7.8 81 1.5 WSW 6 7 3 4 1020.3 1020.3 2.2
 
Date/Time
WST
Temp
°C
App
Temp
°C
Dew
Point
Rel
Hum
%
Delta-T
°C
Wind Press
QNH
hPa
Press
MSL
hPa
Rain
since 9 am
mm
Dir
 
Spd
km/h
Gust
km/h
Spd
kts
Gust
kts
29/11:30pm 11.7 9.2 8.2 79 1.7 SW 11 17 6 9 1020.3 1020.3 2.2
29/11:00pm 11.4 9.4 8.6 83 1.4 SW 9 15 5 8 1020.3 1020.3 2.2
29/10:30pm 12.0 10.4 8.7 80 1.7 WSW 7 9 4 5 1020.3 1020.3 2.2
29/10:00pm 12.7 10.7 8.6 76 2.1 WSW 9 15 5 8 1020.3 1020.3 2.2
29/09:30pm 13.5 11.1 8.8 73 2.4 WSW 11 17 6 9 1020.1 1020.1 2.2
29/09:00pm 14.2 10.3 8.6 69 2.9 WSW 19 28 10 15 1020.1 1020.1 2.2
29/08:30pm 14.5 11.8 8.9 69 2.9 W 13 19 7 10 1019.5 1019.4 2.2
29/08:00pm 15.1 12.4 8.8 66 3.2 W 13 22 7 12 1019.0 1018.9 2.2
29/07:30pm 15.8 13.1 9.0 64 3.5 WSW 13 17 7 9 1018.4 1018.3 2.2
29/07:00pm 16.6 14.0 9.3 62 3.8 WSW 13 19 7 10 1017.9 1017.8 2.2
29/06:30pm 17.3 14.7 9.2 59 4.3 WSW 13 20 7 11 1017.3 1017.2 2.2
29/06:00pm 18.5 14.7 9.0 54 5.0 W 19 28 10 15 1016.6 1016.5 2.2
29/05:30pm 19.7 16.4 9.6 52 5.4 W 17 26 9 14 1016.3 1016.2 2.2
29/05:00pm 20.3 17.1 10.1 52 5.6 WSW 17 26 9 14 1016.0 1015.9 2.2
29/04:30pm 20.5 16.3 9.7 50 5.9 WSW 22 33 12 18 1015.4 1015.3 2.2
29/04:00pm 21.5 17.4 10.0 48 6.3 W 22 32 12 17 1015.3 1015.2 2.2
29/03:30pm 20.6 16.2 10.4 52 5.6 W 24 33 13 18 1015.1 1015.0 2.2
29/03:00pm 21.6 17.1 10.1 48 6.3 W 24 33 13 18 1014.8 1014.7 2.2
29/02:30pm 21.3 16.7 11.1 52 5.7 W 26 37 14 20 1014.7 1014.6 2.2
29/02:00pm 20.3 15.9 10.4 53 5.4 W 24 32 13 17 1014.7 1014.6 2.2
29/01:30pm 20.0 16.5 11.0 56 5.0 W 20 32 11 17 1015.0 1014.9 2.2
29/01:00pm 20.1 16.1 10.5 54 5.3 W 22 33 12 18 1015.4 1015.3 2.2
29/12:30pm 18.8 15.8 11.9 64 3.9 WSW 19 30 10 16 1015.6 1015.5 2.2

Other Formats:

Comma delimited format used in spreadsheet applications
http://www.bom.gov.au/fwo/IDW60801/IDW60801.95637.axf

JavaScript Object Notation format (JSON) in row-major order
http://www.bom.gov.au/fwo/IDW60801/IDW60801.95637.json